sensor_id;sensor_type;location;lat;lon;timestamp;P1;durP1;ratioP1;P2;durP2;ratioP2
69323;SDS011;56470;47.350;8.718;2022-11-15T00:01:31;6.33;;;2.60;;
69323;SDS011;56470;47.350;8.718;2022-11-15T00:03:57;4.37;;;2.17;;
69323;SDS011;56470;47.350;8.718;2022-11-15T00:06:22;4.40;;;2.17;;
69323;SDS011;56470;47.350;8.718;2022-11-15T00:08:47;4.07;;;2.07;;
69323;SDS011;56470;47.350;8.718;2022-11-15T00:11:13;3.87;;;2.27;;
69323;SDS011;56470;47.350;8.718;2022-11-15T00:13:39;3.80;;;1.70;;
69323;SDS011;56470;47.350;8.718;2022-11-15T00:16:05;3.65;;;2.20;;
69323;SDS011;56470;47.350;8.718;2022-11-15T00:18:30;5.17;;;1.97;;
69323;SDS011;56470;47.350;8.718;2022-11-15T00:20:56;6.10;;;2.73;;
69323;SDS011;56470;47.350;8.718;2022-11-15T00:23:28;6.30;;;2.53;;
69323;SDS011;56470;47.350;8.718;2022-11-15T00:25:56;4.53;;;2.00;;
69323;SDS011;56470;47.350;8.718;2022-11-15T00:28:23;4.07;;;1.77;;
69323;SDS011;56470;47.350;8.718;2022-11-15T00:30:49;3.97;;;2.10;;
69323;SDS011;56470;47.350;8.718;2022-11-15T00:33:14;3.10;;;1.80;;
69323;SDS011;56470;47.350;8.718;2022-11-15T00:35:39;5.57;;;2.00;;
69323;SDS011;56470;47.350;8.718;2022-11-15T00:38:05;3.87;;;1.50;;
69323;SDS011;56470;47.350;8.718;2022-11-15T00:40:30;5.20;;;2.23;;
69323;SDS011;56470;47.350;8.718;2022-11-15T00:42:55;4.33;;;1.60;;
69323;SDS011;56470;47.350;8.718;2022-11-15T00:45:21;3.83;;;1.83;;
69323;SDS011;56470;47.350;8.718;2022-11-15T00:47:46;3.25;;;2.22;;
69323;SDS011;56470;47.350;8.718;2022-11-15T00:50:12;3.33;;;1.70;;
69323;SDS011;56470;47.350;8.718;2022-11-15T00:52:38;5.57;;;1.95;;
69323;SDS011;56470;47.350;8.718;2022-11-15T00:55:03;4.57;;;1.97;;
69323;SDS011;56470;47.350;8.718;2022-11-15T00:57:29;4.10;;;2.20;;
69323;SDS011;56470;47.350;8.718;2022-11-15T00:59:55;3.40;;;1.90;;
69323;SDS011;56470;47.350;8.718;2022-11-15T01:02:20;3.47;;;2.37;;
69323;SDS011;56470;47.350;8.718;2022-11-15T01:04:46;3.93;;;1.23;;
69323;SDS011;56470;47.350;8.718;2022-11-15T01:07:11;4.70;;;2.08;;
69323;SDS011;56470;47.350;8.718;2022-11-15T01:09:37;5.37;;;2.10;;
69323;SDS011;56470;47.350;8.718;2022-11-15T01:12:02;3.67;;;2.00;;
69323;SDS011;56470;47.350;8.718;2022-11-15T01:14:27;3.45;;;1.98;;
69323;SDS011;56470;47.350;8.718;2022-11-15T01:16:53;3.77;;;2.33;;
69323;SDS011;56470;47.350;8.718;2022-11-15T01:19:18;5.03;;;2.03;;
69323;SDS011;56470;47.350;8.718;2022-11-15T01:21:43;4.17;;;1.90;;
69323;SDS011;56470;47.350;8.718;2022-11-15T01:24:11;4.07;;;2.17;;
69323;SDS011;56470;47.350;8.718;2022-11-15T01:26:37;3.10;;;1.58;;
69323;SDS011;56470;47.350;8.718;2022-11-15T01:29:03;3.85;;;2.25;;
69323;SDS011;56470;47.350;8.718;2022-11-15T01:31:28;4.17;;;2.37;;
69323;SDS011;56470;47.350;8.718;2022-11-15T01:33:54;3.80;;;1.73;;
69323;SDS011;56470;47.350;8.718;2022-11-15T01:36:20;9.07;;;2.60;;
69323;SDS011;56470;47.350;8.718;2022-11-15T01:38:47;10.23;;;3.92;;
69323;SDS011;56470;47.350;8.718;2022-11-15T01:41:19;7.32;;;3.83;;
69323;SDS011;56470;47.350;8.718;2022-11-15T01:43:48;5.40;;;2.67;;
69323;SDS011;56470;47.350;8.718;2022-11-15T01:48:51;11.68;;;3.83;;
69323;SDS011;56470;47.350;8.718;2022-11-15T01:51:18;10.27;;;3.83;;
69323;SDS011;56470;47.350;8.718;2022-11-15T01:53:50;7.15;;;3.45;;
69323;SDS011;56470;47.350;8.718;2022-11-15T01:56:19;7.73;;;3.43;;
69323;SDS011;56470;47.350;8.718;2022-11-15T01:58:47;7.53;;;3.30;;
69323;SDS011;56470;47.350;8.718;2022-11-15T02:01:13;8.63;;;3.88;;
69323;SDS011;56470;47.350;8.718;2022-11-15T02:06:24;8.57;;;4.13;;
69323;SDS011;56470;47.350;8.718;2022-11-15T02:08:50;11.20;;;4.82;;
69323;SDS011;56470;47.350;8.718;2022-11-15T02:11:15;12.10;;;4.27;;
69323;SDS011;56470;47.350;8.718;2022-11-15T02:13:41;14.73;;;4.63;;
69323;SDS011;56470;47.350;8.718;2022-11-15T02:16:10;9.43;;;4.57;;
69323;SDS011;56470;47.350;8.718;2022-11-15T02:19:17;12.80;;;5.55;;
69323;SDS011;56470;47.350;8.718;2022-11-15T02:25:01;8.60;;;3.47;;
69323;SDS011;56470;47.350;8.718;2022-11-15T02:27:31;15.30;;;5.33;;
69323;SDS011;56470;47.350;8.718;2022-11-15T02:30:32;4.97;;;2.60;;
69323;SDS011;56470;47.350;8.718;2022-11-15T02:33:03;9.77;;;4.35;;
69323;SDS011;56470;47.350;8.718;2022-11-15T02:36:12;11.45;;;5.07;;
69323;SDS011;56470;47.350;8.718;2022-11-15T02:44:23;11.25;;;4.97;;
69323;SDS011;56470;47.350;8.718;2022-11-15T02:49:53;13.38;;;5.50;;
69323;SDS011;56470;47.350;8.718;2022-11-15T02:52:20;12.80;;;5.55;;
69323;SDS011;56470;47.350;8.718;2022-11-15T02:54:54;13.67;;;5.23;;
69323;SDS011;56470;47.350;8.718;2022-11-15T02:57:26;7.93;;;3.83;;
69323;SDS011;56470;47.350;8.718;2022-11-15T03:00:08;7.40;;;4.30;;
69323;SDS011;56470;47.350;8.718;2022-11-15T03:11:08;6.90;;;3.08;;
69323;SDS011;56470;47.350;8.718;2022-11-15T03:16:39;8.35;;;3.58;;
69323;SDS011;56470;47.350;8.718;2022-11-15T03:19:32;8.68;;;3.80;;
69323;SDS011;56470;47.350;8.718;2022-11-15T03:22:05;6.60;;;3.23;;
69323;SDS011;56470;47.350;8.718;2022-11-15T03:24:34;7.38;;;3.20;;
69323;SDS011;56470;47.350;8.718;2022-11-15T03:27:02;8.05;;;3.83;;
69323;SDS011;56470;47.350;8.718;2022-11-15T03:29:32;5.55;;;2.88;;
69323;SDS011;56470;47.350;8.718;2022-11-15T03:32:02;3.50;;;2.03;;
69323;SDS011;56470;47.350;8.718;2022-11-15T03:34:38;3.60;;;2.20;;
69323;SDS011;56470;47.350;8.718;2022-11-15T03:37:08;2.30;;;1.50;;
69323;SDS011;56470;47.350;8.718;2022-11-15T03:39:36;3.83;;;1.90;;
69323;SDS011;56470;47.350;8.718;2022-11-15T03:44:47;4.47;;;1.77;;
69323;SDS011;56470;47.350;8.718;2022-11-15T03:50:09;3.25;;;1.83;;
69323;SDS011;56470;47.350;8.718;2022-11-15T03:52:37;3.97;;;1.43;;
69323;SDS011;56470;47.350;8.718;2022-11-15T03:55:06;2.60;;;1.42;;
69323;SDS011;56470;47.350;8.718;2022-11-15T03:57:33;3.00;;;1.52;;
69323;SDS011;56470;47.350;8.718;2022-11-15T03:59:58;2.83;;;1.50;;
69323;SDS011;56470;47.350;8.718;2022-11-15T04:02:24;3.17;;;1.93;;
69323;SDS011;56470;47.350;8.718;2022-11-15T04:04:49;3.50;;;1.80;;
69323;SDS011;56470;47.350;8.718;2022-11-15T04:07:14;2.80;;;1.47;;
69323;SDS011;56470;47.350;8.718;2022-11-15T04:09:40;2.63;;;1.80;;
69323;SDS011;56470;47.350;8.718;2022-11-15T04:12:23;4.22;;;1.92;;
69323;SDS011;56470;47.350;8.718;2022-11-15T04:14:56;2.90;;;1.67;;
69323;SDS011;56470;47.350;8.718;2022-11-15T04:17:35;2.92;;;1.75;;
69323;SDS011;56470;47.350;8.718;2022-11-15T04:20:06;4.43;;;2.40;;
69323;SDS011;56470;47.350;8.718;2022-11-15T04:22:56;2.47;;;1.33;;
69323;SDS011;56470;47.350;8.718;2022-11-15T04:25:42;3.53;;;1.45;;
69323;SDS011;56470;47.350;8.718;2022-11-15T04:28:08;3.58;;;1.88;;
69323;SDS011;56470;47.350;8.718;2022-11-15T04:30:34;3.90;;;1.60;;
69323;SDS011;56470;47.350;8.718;2022-11-15T04:33:00;3.85;;;1.85;;
69323;SDS011;56470;47.350;8.718;2022-11-15T04:35:25;5.43;;;2.40;;
69323;SDS011;56470;47.350;8.718;2022-11-15T04:37:51;4.13;;;1.93;;
69323;SDS011;56470;47.350;8.718;2022-11-15T04:40:16;5.60;;;2.27;;
69323;SDS011;56470;47.350;8.718;2022-11-15T04:42:42;6.03;;;2.58;;
69323;SDS011;56470;47.350;8.718;2022-11-15T04:45:07;4.40;;;2.40;;
69323;SDS011;56470;47.350;8.718;2022-11-15T04:47:34;4.68;;;2.63;;
69323;SDS011;56470;47.350;8.718;2022-11-15T04:49:59;3.63;;;2.07;;
69323;SDS011;56470;47.350;8.718;2022-11-15T04:52:25;4.20;;;2.10;;
69323;SDS011;56470;47.350;8.718;2022-11-15T04:54:50;3.27;;;1.87;;
69323;SDS011;56470;47.350;8.718;2022-11-15T04:57:20;2.50;;;1.47;;
69323;SDS011;56470;47.350;8.718;2022-11-15T04:59:45;4.78;;;1.95;;
69323;SDS011;56470;47.350;8.718;2022-11-15T05:02:11;4.73;;;2.00;;
69323;SDS011;56470;47.350;8.718;2022-11-15T05:04:37;2.72;;;1.75;;
69323;SDS011;56470;47.350;8.718;2022-11-15T05:07:02;4.00;;;2.30;;
69323;SDS011;56470;47.350;8.718;2022-11-15T05:09:30;2.65;;;1.40;;
69323;SDS011;56470;47.350;8.718;2022-11-15T05:12:00;3.10;;;1.55;;
69323;SDS011;56470;47.350;8.718;2022-11-15T05:14:26;3.63;;;1.90;;
69323;SDS011;56470;47.350;8.718;2022-11-15T05:16:51;5.57;;;2.17;;
69323;SDS011;56470;47.350;8.718;2022-11-15T05:19:17;4.27;;;2.13;;
69323;SDS011;56470;47.350;8.718;2022-11-15T05:21:42;4.35;;;1.80;;
69323;SDS011;56470;47.350;8.718;2022-11-15T05:24:09;3.07;;;1.70;;
69323;SDS011;56470;47.350;8.718;2022-11-15T05:26:36;3.95;;;1.88;;
69323;SDS011;56470;47.350;8.718;2022-11-15T05:29:01;4.47;;;2.47;;
69323;SDS011;56470;47.350;8.718;2022-11-15T05:31:27;4.10;;;1.80;;
69323;SDS011;56470;47.350;8.718;2022-11-15T05:33:53;3.30;;;1.30;;
69323;SDS011;56470;47.350;8.718;2022-11-15T05:38:57;2.93;;;1.30;;
69323;SDS011;56470;47.350;8.718;2022-11-15T05:41:27;3.38;;;1.75;;
69323;SDS011;56470;47.350;8.718;2022-11-15T05:44:00;3.30;;;1.70;;
69323;SDS011;56470;47.350;8.718;2022-11-15T05:46:27;4.35;;;1.48;;
69323;SDS011;56470;47.350;8.718;2022-11-15T05:48:54;3.35;;;1.90;;
69323;SDS011;56470;47.350;8.718;2022-11-15T05:51:20;2.10;;;1.33;;
69323;SDS011;56470;47.350;8.718;2022-11-15T05:53:47;2.67;;;1.63;;
69323;SDS011;56470;47.350;8.718;2022-11-15T05:56:13;4.03;;;1.63;;
69323;SDS011;56470;47.350;8.718;2022-11-15T05:58:39;3.42;;;1.50;;
69323;SDS011;56470;47.350;8.718;2022-11-15T06:01:05;5.43;;;2.83;;
69323;SDS011;56470;47.350;8.718;2022-11-15T06:03:30;5.83;;;1.90;;
69323;SDS011;56470;47.350;8.718;2022-11-15T06:05:56;3.57;;;2.03;;
69323;SDS011;56470;47.350;8.718;2022-11-15T06:08:22;2.95;;;1.48;;
69323;SDS011;56470;47.350;8.718;2022-11-15T06:10:47;4.63;;;2.30;;
69323;SDS011;56470;47.350;8.718;2022-11-15T06:13:13;4.50;;;1.90;;
69323;SDS011;56470;47.350;8.718;2022-11-15T06:15:38;2.88;;;1.70;;
69323;SDS011;56470;47.350;8.718;2022-11-15T06:18:03;2.97;;;1.43;;
69323;SDS011;56470;47.350;8.718;2022-11-15T06:20:29;2.97;;;1.83;;
69323;SDS011;56470;47.350;8.718;2022-11-15T06:22:58;3.47;;;1.85;;
69323;SDS011;56470;47.350;8.718;2022-11-15T06:25:25;2.97;;;1.52;;
69323;SDS011;56470;47.350;8.718;2022-11-15T06:27:55;4.38;;;1.35;;
69323;SDS011;56470;47.350;8.718;2022-11-15T06:30:22;3.03;;;1.60;;
69323;SDS011;56470;47.350;8.718;2022-11-15T06:32:48;3.83;;;1.80;;
69323;SDS011;56470;47.350;8.718;2022-11-15T06:35:14;3.97;;;2.17;;
69323;SDS011;56470;47.350;8.718;2022-11-15T06:37:39;2.93;;;1.80;;
69323;SDS011;56470;47.350;8.718;2022-11-15T06:40:06;5.70;;;2.88;;
69323;SDS011;56470;47.350;8.718;2022-11-15T06:42:33;5.80;;;2.72;;
69323;SDS011;56470;47.350;8.718;2022-11-15T06:44:58;5.37;;;1.80;;
69323;SDS011;56470;47.350;8.718;2022-11-15T06:47:24;3.50;;;1.73;;
69323;SDS011;56470;47.350;8.718;2022-11-15T06:49:49;3.43;;;1.73;;
69323;SDS011;56470;47.350;8.718;2022-11-15T06:52:14;4.47;;;2.47;;
69323;SDS011;56470;47.350;8.718;2022-11-15T06:54:40;3.85;;;2.30;;
69323;SDS011;56470;47.350;8.718;2022-11-15T06:57:05;6.37;;;2.80;;
69323;SDS011;56470;47.350;8.718;2022-11-15T06:59:30;4.63;;;2.67;;
69323;SDS011;56470;47.350;8.718;2022-11-15T07:01:55;4.30;;;2.07;;
69323;SDS011;56470;47.350;8.718;2022-11-15T07:04:21;4.37;;;2.20;;
69323;SDS011;56470;47.350;8.718;2022-11-15T07:06:46;4.03;;;2.97;;
69323;SDS011;56470;47.350;8.718;2022-11-15T07:09:12;4.32;;;2.03;;
69323;SDS011;56470;47.350;8.718;2022-11-15T07:11:38;4.47;;;2.33;;
69323;SDS011;56470;47.350;8.718;2022-11-15T07:14:03;4.57;;;2.23;;
69323;SDS011;56470;47.350;8.718;2022-11-15T07:16:28;5.43;;;2.53;;
69323;SDS011;56470;47.350;8.718;2022-11-15T07:18:54;6.53;;;2.70;;
69323;SDS011;56470;47.350;8.718;2022-11-15T07:21:19;3.93;;;2.20;;
69323;SDS011;56470;47.350;8.718;2022-11-15T07:23:44;4.67;;;2.33;;
69323;SDS011;56470;47.350;8.718;2022-11-15T07:26:10;4.33;;;2.00;;
69323;SDS011;56470;47.350;8.718;2022-11-15T07:28:35;6.00;;;2.00;;
69323;SDS011;56470;47.350;8.718;2022-11-15T07:31:04;3.30;;;2.05;;
69323;SDS011;56470;47.350;8.718;2022-11-15T07:33:31;4.10;;;2.03;;
69323;SDS011;56470;47.350;8.718;2022-11-15T07:36:00;4.72;;;2.00;;
69323;SDS011;56470;47.350;8.718;2022-11-15T07:38:29;5.28;;;2.05;;
69323;SDS011;56470;47.350;8.718;2022-11-15T07:40:58;4.50;;;2.20;;
69323;SDS011;56470;47.350;8.718;2022-11-15T07:43:25;6.35;;;2.90;;
69323;SDS011;56470;47.350;8.718;2022-11-15T07:45:52;5.90;;;2.60;;
69323;SDS011;56470;47.350;8.718;2022-11-15T07:48:18;5.75;;;2.55;;
69323;SDS011;56470;47.350;8.718;2022-11-15T07:50:44;4.47;;;1.93;;
69323;SDS011;56470;47.350;8.718;2022-11-15T07:53:09;4.57;;;2.43;;
69323;SDS011;56470;47.350;8.718;2022-11-15T07:55:39;6.93;;;2.10;;
69323;SDS011;56470;47.350;8.718;2022-11-15T07:58:06;6.97;;;2.50;;
69323;SDS011;56470;47.350;8.718;2022-11-15T08:00:33;6.53;;;2.50;;
69323;SDS011;56470;47.350;8.718;2022-11-15T08:03:06;5.93;;;2.60;;
69323;SDS011;56470;47.350;8.718;2022-11-15T08:05:39;4.90;;;2.80;;
69323;SDS011;56470;47.350;8.718;2022-11-15T08:08:07;5.05;;;2.90;;
69323;SDS011;56470;47.350;8.718;2022-11-15T08:10:33;6.95;;;2.90;;
69323;SDS011;56470;47.350;8.718;2022-11-15T08:13:00;4.55;;;2.47;;
69323;SDS011;56470;47.350;8.718;2022-11-15T08:15:28;4.80;;;1.70;;
69323;SDS011;56470;47.350;8.718;2022-11-15T08:18:00;5.28;;;2.15;;
69323;SDS011;56470;47.350;8.718;2022-11-15T08:20:31;6.78;;;2.28;;
69323;SDS011;56470;47.350;8.718;2022-11-15T08:22:57;5.70;;;1.90;;
69323;SDS011;56470;47.350;8.718;2022-11-15T08:25:24;3.83;;;2.25;;
69323;SDS011;56470;47.350;8.718;2022-11-15T08:27:53;4.50;;;2.67;;
69323;SDS011;56470;47.350;8.718;2022-11-15T08:30:19;6.28;;;2.63;;
69323;SDS011;56470;47.350;8.718;2022-11-15T08:32:45;7.65;;;2.65;;
69323;SDS011;56470;47.350;8.718;2022-11-15T08:35:10;5.50;;;3.23;;
69323;SDS011;56470;47.350;8.718;2022-11-15T08:37:39;6.25;;;3.22;;
69323;SDS011;56470;47.350;8.718;2022-11-15T08:40:04;5.30;;;2.83;;
69323;SDS011;56470;47.350;8.718;2022-11-15T08:42:30;7.40;;;3.33;;
69323;SDS011;56470;47.350;8.718;2022-11-15T08:44:56;6.07;;;2.43;;
69323;SDS011;56470;47.350;8.718;2022-11-15T08:47:21;5.53;;;2.63;;
69323;SDS011;56470;47.350;8.718;2022-11-15T08:49:47;5.53;;;2.35;;
69323;SDS011;56470;47.350;8.718;2022-11-15T08:52:13;6.13;;;2.17;;
69323;SDS011;56470;47.350;8.718;2022-11-15T08:54:39;5.93;;;2.53;;
69323;SDS011;56470;47.350;8.718;2022-11-15T08:57:04;6.50;;;2.70;;
69323;SDS011;56470;47.350;8.718;2022-11-15T08:59:29;5.90;;;2.50;;
69323;SDS011;56470;47.350;8.718;2022-11-15T09:01:55;5.97;;;2.33;;
69323;SDS011;56470;47.350;8.718;2022-11-15T09:04:20;4.83;;;2.23;;
69323;SDS011;56470;47.350;8.718;2022-11-15T09:06:45;4.47;;;2.60;;
69323;SDS011;56470;47.350;8.718;2022-11-15T09:09:11;6.77;;;2.63;;
69323;SDS011;56470;47.350;8.718;2022-11-15T09:11:36;5.10;;;2.93;;
69323;SDS011;56470;47.350;8.718;2022-11-15T09:14:01;4.97;;;2.50;;
69323;SDS011;56470;47.350;8.718;2022-11-15T09:16:27;5.33;;;2.50;;
69323;SDS011;56470;47.350;8.718;2022-11-15T09:18:52;4.47;;;2.40;;
69323;SDS011;56470;47.350;8.718;2022-11-15T09:21:19;5.40;;;2.45;;
69323;SDS011;56470;47.350;8.718;2022-11-15T09:23:45;4.95;;;2.40;;
69323;SDS011;56470;47.350;8.718;2022-11-15T09:26:10;4.97;;;2.70;;
69323;SDS011;56470;47.350;8.718;2022-11-15T09:28:36;6.47;;;2.60;;
69323;SDS011;56470;47.350;8.718;2022-11-15T09:31:03;4.70;;;2.03;;
69323;SDS011;56470;47.350;8.718;2022-11-15T09:33:30;4.15;;;2.45;;
69323;SDS011;56470;47.350;8.718;2022-11-15T09:35:59;5.50;;;2.20;;
69323;SDS011;56470;47.350;8.718;2022-11-15T09:38:26;5.20;;;2.88;;
69323;SDS011;56470;47.350;8.718;2022-11-15T09:40:52;4.03;;;2.10;;
69323;SDS011;56470;47.350;8.718;2022-11-15T09:46:05;5.13;;;2.90;;
69323;SDS011;56470;47.350;8.718;2022-11-15T09:48:51;4.03;;;2.20;;
69323;SDS011;56470;47.350;8.718;2022-11-15T09:51:24;6.32;;;2.30;;
69323;SDS011;56470;47.350;8.718;2022-11-15T09:53:58;4.60;;;2.43;;
69323;SDS011;56470;47.350;8.718;2022-11-15T09:56:35;5.35;;;2.75;;
69323;SDS011;56470;47.350;8.718;2022-11-15T10:04:52;5.97;;;3.05;;
69323;SDS011;56470;47.350;8.718;2022-11-15T10:07:20;7.17;;;3.13;;
69323;SDS011;56470;47.350;8.718;2022-11-15T10:09:53;4.90;;;2.83;;
69323;SDS011;56470;47.350;8.718;2022-11-15T10:12:22;5.10;;;2.50;;
69323;SDS011;56470;47.350;8.718;2022-11-15T10:14:48;5.30;;;2.65;;
69323;SDS011;56470;47.350;8.718;2022-11-15T10:20:12;4.10;;;2.30;;
69323;SDS011;56470;47.350;8.718;2022-11-15T10:22:45;5.20;;;2.83;;
69323;SDS011;56470;47.350;8.718;2022-11-15T10:27:54;4.55;;;2.88;;
69323;SDS011;56470;47.350;8.718;2022-11-15T10:30:21;5.90;;;3.20;;
69323;SDS011;56470;47.350;8.718;2022-11-15T10:32:50;4.53;;;2.23;;
69323;SDS011;56470;47.350;8.718;2022-11-15T10:35:20;4.25;;;2.25;;
69323;SDS011;56470;47.350;8.718;2022-11-15T10:37:48;4.20;;;2.08;;
69323;SDS011;56470;47.350;8.718;2022-11-15T10:42:47;5.63;;;2.17;;
69323;SDS011;56470;47.350;8.718;2022-11-15T10:45:25;4.50;;;2.22;;
69323;SDS011;56470;47.350;8.718;2022-11-15T10:47:59;4.43;;;2.10;;
69323;SDS011;56470;47.350;8.718;2022-11-15T10:50:45;4.53;;;2.25;;
69323;SDS011;56470;47.350;8.718;2022-11-15T10:53:23;4.43;;;2.87;;
69323;SDS011;56470;47.350;8.718;2022-11-15T10:55:53;5.00;;;2.50;;
69323;SDS011;56470;47.350;8.718;2022-11-15T11:00:56;6.10;;;3.30;;
69323;SDS011;56470;47.350;8.718;2022-11-15T11:03:36;5.32;;;2.83;;
69323;SDS011;56470;47.350;8.718;2022-11-15T11:06:16;6.87;;;3.10;;
69323;SDS011;56470;47.350;8.718;2022-11-15T11:08:55;5.38;;;2.67;;
69323;SDS011;56470;47.350;8.718;2022-11-15T11:11:43;4.55;;;2.53;;
69323;SDS011;56470;47.350;8.718;2022-11-15T11:14:12;6.25;;;2.78;;
69323;SDS011;56470;47.350;8.718;2022-11-15T11:16:42;5.20;;;2.70;;
69323;SDS011;56470;47.350;8.718;2022-11-15T11:30:06;5.43;;;3.72;;
69323;SDS011;56470;47.350;8.718;2022-11-15T11:32:50;4.23;;;2.73;;
69323;SDS011;56470;47.350;8.718;2022-11-15T11:35:34;5.32;;;2.83;;
69323;SDS011;56470;47.350;8.718;2022-11-15T11:38:19;5.38;;;2.15;;
69323;SDS011;56470;47.350;8.718;2022-11-15T11:41:14;3.78;;;2.38;;
69323;SDS011;56470;47.350;8.718;2022-11-15T11:44:15;3.83;;;2.22;;
69323;SDS011;56470;47.350;8.718;2022-11-15T11:46:56;5.10;;;2.67;;
69323;SDS011;56470;47.350;8.718;2022-11-15T11:49:43;5.57;;;2.83;;
69323;SDS011;56470;47.350;8.718;2022-11-15T11:52:17;4.40;;;2.35;;
69323;SDS011;56470;47.350;8.718;2022-11-15T11:57:29;4.80;;;2.38;;
69323;SDS011;56470;47.350;8.718;2022-11-15T12:00:02;8.00;;;2.60;;
69323;SDS011;56470;47.350;8.718;2022-11-15T12:02:29;5.28;;;2.20;;
69323;SDS011;56470;47.350;8.718;2022-11-15T12:05:34;3.88;;;2.10;;
69323;SDS011;56470;47.350;8.718;2022-11-15T12:08:22;4.65;;;1.92;;
69323;SDS011;56470;47.350;8.718;2022-11-15T12:11:00;3.60;;;2.28;;
69323;SDS011;56470;47.350;8.718;2022-11-15T12:13:39;4.80;;;2.10;;
69323;SDS011;56470;47.350;8.718;2022-11-15T12:18:51;3.67;;;1.63;;
69323;SDS011;56470;47.350;8.718;2022-11-15T12:21:41;5.60;;;2.47;;
69323;SDS011;56470;47.350;8.718;2022-11-15T12:24:16;4.03;;;2.30;;
69323;SDS011;56470;47.350;8.718;2022-11-15T12:29:49;4.20;;;2.25;;
69323;SDS011;56470;47.350;8.718;2022-11-15T12:32:22;3.67;;;1.60;;
69323;SDS011;56470;47.350;8.718;2022-11-15T12:34:52;3.88;;;2.03;;
69323;SDS011;56470;47.350;8.718;2022-11-15T12:42:41;2.97;;;1.53;;
69323;SDS011;56470;47.350;8.718;2022-11-15T12:45:29;5.25;;;1.90;;
69323;SDS011;56470;47.350;8.718;2022-11-15T12:58:49;2.85;;;1.67;;
69323;SDS011;56470;47.350;8.718;2022-11-15T13:06:49;2.58;;;1.35;;
69323;SDS011;56470;47.350;8.718;2022-11-15T13:12:11;2.63;;;1.50;;
69323;SDS011;56470;47.350;8.718;2022-11-15T13:14:52;2.83;;;1.90;;
69323;SDS011;56470;47.350;8.718;2022-11-15T13:17:32;3.00;;;1.63;;
69323;SDS011;56470;47.350;8.718;2022-11-15T13:25:39;3.53;;;1.50;;
69323;SDS011;56470;47.350;8.718;2022-11-15T13:30:38;4.33;;;1.57;;
69323;SDS011;56470;47.350;8.718;2022-11-15T13:33:09;4.25;;;2.13;;
69323;SDS011;56470;47.350;8.718;2022-11-15T13:35:45;3.38;;;1.85;;
69323;SDS011;56470;47.350;8.718;2022-11-15T13:38:19;5.32;;;1.80;;
69323;SDS011;56470;47.350;8.718;2022-11-15T13:40:50;4.80;;;1.60;;
69323;SDS011;56470;47.350;8.718;2022-11-15T13:48:52;3.15;;;1.88;;
69323;SDS011;56470;47.350;8.718;2022-11-15T13:51:31;5.47;;;1.90;;
69323;SDS011;56470;47.350;8.718;2022-11-15T13:54:07;4.37;;;2.00;;
69323;SDS011;56470;47.350;8.718;2022-11-15T13:56:40;4.15;;;2.38;;
69323;SDS011;56470;47.350;8.718;2022-11-15T13:59:10;3.85;;;1.90;;
69323;SDS011;56470;47.350;8.718;2022-11-15T14:01:46;4.00;;;2.67;;
69323;SDS011;56470;47.350;8.718;2022-11-15T14:04:13;3.92;;;1.73;;
69323;SDS011;56470;47.350;8.718;2022-11-15T14:06:44;4.87;;;2.17;;
69323;SDS011;56470;47.350;8.718;2022-11-15T14:11:49;3.73;;;1.90;;
69323;SDS011;56470;47.350;8.718;2022-11-15T14:14:17;5.35;;;2.22;;
69323;SDS011;56470;47.350;8.718;2022-11-15T14:16:47;3.65;;;2.00;;
69323;SDS011;56470;47.350;8.718;2022-11-15T14:27:44;3.75;;;2.00;;
69323;SDS011;56470;47.350;8.718;2022-11-15T14:30:29;4.05;;;2.13;;
69323;SDS011;56470;47.350;8.718;2022-11-15T14:32:55;5.07;;;2.10;;
69323;SDS011;56470;47.350;8.718;2022-11-15T14:35:21;4.10;;;2.07;;
69323;SDS011;56470;47.350;8.718;2022-11-15T14:37:47;4.85;;;2.13;;
69323;SDS011;56470;47.350;8.718;2022-11-15T14:40:13;7.17;;;2.50;;
69323;SDS011;56470;47.350;8.718;2022-11-15T14:42:46;4.18;;;2.42;;
69323;SDS011;56470;47.350;8.718;2022-11-15T14:47:40;4.63;;;2.38;;
69323;SDS011;56470;47.350;8.718;2022-11-15T14:50:06;5.50;;;2.30;;
69323;SDS011;56470;47.350;8.718;2022-11-15T14:52:36;5.78;;;2.50;;
69323;SDS011;56470;47.350;8.718;2022-11-15T14:55:03;4.37;;;2.30;;
69323;SDS011;56470;47.350;8.718;2022-11-15T14:57:35;5.03;;;2.42;;
69323;SDS011;56470;47.350;8.718;2022-11-15T15:00:00;4.33;;;2.10;;
69323;SDS011;56470;47.350;8.718;2022-11-15T15:02:26;7.23;;;2.63;;
69323;SDS011;56470;47.350;8.718;2022-11-15T15:04:52;5.20;;;2.08;;
69323;SDS011;56470;47.350;8.718;2022-11-15T15:07:18;4.20;;;2.03;;
69323;SDS011;56470;47.350;8.718;2022-11-15T15:09:44;4.87;;;2.47;;
69323;SDS011;56470;47.350;8.718;2022-11-15T15:12:17;4.13;;;2.50;;
69323;SDS011;56470;47.350;8.718;2022-11-15T15:14:45;6.70;;;2.30;;
69323;SDS011;56470;47.350;8.718;2022-11-15T15:17:12;4.85;;;2.10;;
69323;SDS011;56470;47.350;8.718;2022-11-15T15:19:37;5.40;;;2.43;;
69323;SDS011;56470;47.350;8.718;2022-11-15T15:22:03;5.30;;;2.97;;
69323;SDS011;56470;47.350;8.718;2022-11-15T15:24:28;5.45;;;2.28;;
69323;SDS011;56470;47.350;8.718;2022-11-15T15:26:53;4.13;;;2.47;;
69323;SDS011;56470;47.350;8.718;2022-11-15T15:29:19;5.07;;;2.30;;
69323;SDS011;56470;47.350;8.718;2022-11-15T15:31:44;4.93;;;2.33;;
69323;SDS011;56470;47.350;8.718;2022-11-15T15:34:09;5.20;;;2.43;;
69323;SDS011;56470;47.350;8.718;2022-11-15T15:36:35;4.68;;;2.15;;
69323;SDS011;56470;47.350;8.718;2022-11-15T15:39:00;5.13;;;2.17;;
69323;SDS011;56470;47.350;8.718;2022-11-15T15:41:25;5.07;;;2.17;;
69323;SDS011;56470;47.350;8.718;2022-11-15T15:43:51;5.00;;;2.70;;
69323;SDS011;56470;47.350;8.718;2022-11-15T15:46:17;5.73;;;3.03;;
69323;SDS011;56470;47.350;8.718;2022-11-15T15:48:44;6.20;;;3.03;;
69323;SDS011;56470;47.350;8.718;2022-11-15T15:51:10;5.20;;;2.50;;
69323;SDS011;56470;47.350;8.718;2022-11-15T15:53:36;6.33;;;2.60;;
69323;SDS011;56470;47.350;8.718;2022-11-15T15:56:02;8.20;;;3.10;;
69323;SDS011;56470;47.350;8.718;2022-11-15T15:58:27;9.50;;;2.73;;
69323;SDS011;56470;47.350;8.718;2022-11-15T16:00:55;6.73;;;2.80;;
69323;SDS011;56470;47.350;8.718;2022-11-15T16:09:36;8.55;;;2.97;;
69323;SDS011;56470;47.350;8.718;2022-11-15T16:15:45;4.97;;;2.73;;
69323;SDS011;56470;47.350;8.718;2022-11-15T16:18:19;6.28;;;2.80;;
69323;SDS011;56470;47.350;8.718;2022-11-15T16:52:08;6.07;;;2.42;;
69323;SDS011;56470;47.350;8.718;2022-11-15T16:57:46;5.72;;;2.92;;
69323;SDS011;56470;47.350;8.718;2022-11-15T17:56:59;9.52;;;3.78;;
69323;SDS011;56470;47.350;8.718;2022-11-15T18:00:29;7.07;;;3.63;;
69323;SDS011;56470;47.350;8.718;2022-11-15T18:03:00;6.63;;;3.47;;
69323;SDS011;56470;47.350;8.718;2022-11-15T18:50:00;5.97;;;3.40;;
69323;SDS011;56470;47.350;8.718;2022-11-15T19:00:11;7.78;;;4.03;;
69323;SDS011;56470;47.350;8.718;2022-11-15T19:06:06;6.40;;;3.67;;
69323;SDS011;56470;47.350;8.718;2022-11-15T19:08:53;8.65;;;4.00;;
69323;SDS011;56470;47.350;8.718;2022-11-15T19:11:41;7.70;;;4.40;;
69323;SDS011;56470;47.350;8.718;2022-11-15T19:14:13;8.18;;;4.43;;
69323;SDS011;56470;47.350;8.718;2022-11-15T19:16:51;9.48;;;4.60;;
69323;SDS011;56470;47.350;8.718;2022-11-15T19:19:19;8.17;;;4.37;;
69323;SDS011;56470;47.350;8.718;2022-11-15T19:21:48;9.73;;;4.40;;
69323;SDS011;56470;47.350;8.718;2022-11-15T19:24:20;9.93;;;4.53;;
69323;SDS011;56470;47.350;8.718;2022-11-15T19:26:59;9.07;;;4.50;;
69323;SDS011;56470;47.350;8.718;2022-11-15T19:29:30;9.87;;;4.53;;
69323;SDS011;56470;47.350;8.718;2022-11-15T19:31:55;10.35;;;4.57;;
69323;SDS011;56470;47.350;8.718;2022-11-15T19:34:20;8.50;;;4.37;;
69323;SDS011;56470;47.350;8.718;2022-11-15T19:36:46;11.30;;;4.33;;
69323;SDS011;56470;47.350;8.718;2022-11-15T19:39:12;7.37;;;4.50;;
69323;SDS011;56470;47.350;8.718;2022-11-15T19:41:39;8.98;;;4.18;;
69323;SDS011;56470;47.350;8.718;2022-11-15T19:44:06;8.57;;;4.82;;
69323;SDS011;56470;47.350;8.718;2022-11-15T19:46:32;10.25;;;4.80;;